This is the latest recevied weather packets stored in our database for station/object SQ5OUZ-8. If no packets are shown the sender has not sent any weather packets the latest 10 day(s).
| Time | Temp. | Humidity | Pressure | Rain* | Wind** | Luminosity | Snow |
|---|---|---|---|---|---|---|---|
| 1777803186 | 28.89° C | 19% | 1018 hPa | - | - | - | - |
| 1777802119 | 28.33° C | 20% | 1018 hPa | - | - | - | - |
| 1777801159 | 27.78° C | 20% | 1019 hPa | - | - | - | - |
| 1777800045 | 27.78° C | 21% | 1019 hPa | - | - | - | - |
| 1777798883 | 27.78° C | 22% | 1019 hPa | - | - | - | - |
| 1777796849 | 26.67° C | 23% | 1019 hPa | - | - | - | - |
| 1777795727 | 26.67° C | 24% | 1019 hPa | - | - | - | - |
| 1777794766 | 25.56° C | 25% | 1019 hPa | - | - | - | - |
| 1777793726 | 26.11° C | 26% | 1019 hPa | - | - | - | - |
| 1777792644 | 25° C | 27% | 1020 hPa | - | - | - | - |
| 1777791482 | 23.33° C | 28% | 1020 hPa | - | - | - | - |
| 1777790399 | 23.33° C | 32% | 1020 hPa | - | - | - | - |
| 1777789360 | 23.33° C | 33% | 1020 hPa | - | - | - | - |
| 1777788232 | 21.11° C | 37% | 1020 hPa | - | - | - | - |
| 1777787200 | 16.11° C | 48% | 1020 hPa | - | - | - | - |
| 1777786111 | 15° C | 53% | 1020 hPa | - | - | - | - |
| 1777784937 | 13.89° C | 56% | 1020 hPa | - | - | - | - |
| 1777783897 | 13.33° C | 57% | 1020 hPa | - | - | - | - |
| 1777782742 | 12.78° C | 59% | 1021 hPa | - | - | - | - |
| 1777781580 | 12.22° C | 60% | 1021 hPa | - | - | - | - |
| 1777780382 | 11.67° C | 62% | 1021 hPa | - | - | - | - |
| 1777779411 | 11.67° C | 62% | 1020 hPa | - | - | - | - |
| 1777778328 | 11.67° C | 62% | 1020 hPa | - | - | - | - |
| 1777777139 | 11.67° C | 63% | 1020 hPa | - | - | - | - |
| 1777776072 | 11.67° C | 62% | 1020 hPa | - | - | - | - |
* Rain since midnight (hover to see other rain measurements)
** Current wind speed in m/s (hover to see current wind gust speed)